createdAt,value
2022-11-28T00:01:24.279Z,14.75
2022-11-28T00:03:50.972Z,13.38
2022-11-28T00:06:18.154Z,12.43
2022-11-28T00:08:45.817Z,14.57
2022-11-28T00:11:15.371Z,10.82
2022-11-28T00:13:42.673Z,15.73
2022-11-28T00:16:14.960Z,15.90
2022-11-28T00:18:42.228Z,8.77
2022-11-28T00:21:11.785Z,13.25
2022-11-28T00:23:39.047Z,13.10
2022-11-28T00:26:12.396Z,10.77
2022-11-28T00:28:39.506Z,13.95
2022-11-28T00:31:06.239Z,13.73
2022-11-28T00:33:33.642Z,13.60
2022-11-28T00:36:02.075Z,13.45
2022-11-28T00:38:29.429Z,15.85
2022-11-28T00:41:05.607Z,14.40
2022-11-28T00:43:32.770Z,12.75
2022-11-28T00:45:59.734Z,16.67
2022-11-28T00:48:26.979Z,8.82
2022-11-28T00:50:55.563Z,17.10
2022-11-28T00:53:22.246Z,14.32
2022-11-28T00:55:48.985Z,14.50
2022-11-28T00:58:15.695Z,12.30
2022-11-28T01:00:42.356Z,16.92
2022-11-28T01:03:09.000Z,12.35
2022-11-28T01:05:41.286Z,15.98
2022-11-28T01:08:07.975Z,14.13
2022-11-28T01:10:34.606Z,13.65
2022-11-28T01:13:01.255Z,11.93
2022-11-28T01:15:28.131Z,14.55
2022-11-28T01:17:54.781Z,17.48
2022-11-28T01:20:21.414Z,15.45
2022-11-28T01:22:48.213Z,16.98
2022-11-28T01:25:14.918Z,12.75
2022-11-28T01:27:41.576Z,14.35
2022-11-28T01:30:08.482Z,21.90
2022-11-28T01:32:35.228Z,15.82
2022-11-28T01:35:01.898Z,13.25
2022-11-28T01:37:31.661Z,12.50
2022-11-28T01:39:58.426Z,14.80
2022-11-28T01:42:25.128Z,10.52
2022-11-28T01:44:54.630Z,10.25
2022-11-28T01:47:27.686Z,9.48
2022-11-28T01:49:55.491Z,9.45
2022-11-28T01:52:23.713Z,11.25
2022-11-28T01:54:57.140Z,13.80
2022-11-28T01:57:25.871Z,11.10
2022-11-28T02:00:05.280Z,10.75
2022-11-28T02:02:54.428Z,14.30
2022-11-28T02:05:22.311Z,14.20
2022-11-28T02:07:50.174Z,11.13
2022-11-28T02:10:22.927Z,12.52
2022-11-28T02:13:12.982Z,9.00
2022-11-28T02:16:10.230Z,11.45
2022-11-28T02:19:11.390Z,11.02
2022-11-28T02:22:03.822Z,12.35
2022-11-28T02:24:30.390Z,13.57
2022-11-28T02:27:06.063Z,15.90
2022-11-28T02:30:12.325Z,12.75
2022-11-28T02:32:56.386Z,10.60
2022-11-28T02:35:28.708Z,14.52
2022-11-28T02:38:06.180Z,12.55
2022-11-28T02:40:42.622Z,14.18
2022-11-28T02:43:47.236Z,14.30
2022-11-28T02:46:22.313Z,17.48
2022-11-28T02:49:05.453Z,16.05
2022-11-28T02:51:35.685Z,22.15
2022-11-28T02:54:03.674Z,17.08
2022-11-28T02:56:30.395Z,17.08
2022-11-28T02:58:57.157Z,17.90
2022-11-28T03:01:30.880Z,16.60
2022-11-28T03:04:15.614Z,15.87
2022-11-28T03:06:59.348Z,17.40
2022-11-28T03:09:48.625Z,18.77
2022-11-28T03:12:15.451Z,15.18
2022-11-28T03:14:42.411Z,19.30
2022-11-28T03:17:24.283Z,13.55
2022-11-28T03:20:18.622Z,13.68
2022-11-28T03:23:11.136Z,14.70
2022-11-28T03:25:43.821Z,20.58
2022-11-28T03:28:28.032Z,16.13
2022-11-28T03:31:06.923Z,14.97
2022-11-28T03:33:41.850Z,21.65
2022-11-28T03:36:31.599Z,16.20
2022-11-28T03:39:20.934Z,13.68
2022-11-28T03:41:54.448Z,15.18
2022-11-28T03:44:37.908Z,17.42
2022-11-28T03:47:06.160Z,14.82
2022-11-28T03:49:38.850Z,22.55
2022-11-28T03:52:08.283Z,20.23
2022-11-28T03:54:41.620Z,16.17
2022-11-28T03:57:32.923Z,16.80
2022-11-28T04:00:04.326Z,15.00
2022-11-28T04:02:33.058Z,15.50
2022-11-28T04:05:32.237Z,19.75
2022-11-28T04:08:14.431Z,20.67
2022-11-28T04:10:53.008Z,21.55
2022-11-28T04:13:31.125Z,20.75
2022-11-28T04:16:08.884Z,20.90
2022-11-28T04:19:00.154Z,19.52
2022-11-28T04:21:45.598Z,18.00
2022-11-28T04:24:16.787Z,19.50
2022-11-28T04:26:47.910Z,22.13
2022-11-28T04:29:18.095Z,19.85
2022-11-28T04:31:46.404Z,25.83
2022-11-28T04:34:18.912Z,20.60
2022-11-28T04:36:48.877Z,23.02
2022-11-28T04:39:21.312Z,27.63
2022-11-28T04:41:55.753Z,23.52
2022-11-28T04:44:36.339Z,23.65
2022-11-28T04:47:03.976Z,22.88
2022-11-28T04:49:31.393Z,24.92
2022-11-28T04:52:10.003Z,22.50
2022-11-28T04:54:59.313Z,24.33
2022-11-28T04:57:42.798Z,29.08
2022-11-28T05:00:21.012Z,26.27
2022-11-28T05:02:51.618Z,29.15
2022-11-28T05:05:21.213Z,28.48
2022-11-28T05:07:47.912Z,21.83
2022-11-28T05:10:15.483Z,23.60
2022-11-28T05:12:42.794Z,30.95
2022-11-28T05:15:10.764Z,27.95
2022-11-28T05:17:42.130Z,28.05
2022-11-28T05:20:09.814Z,25.25
2022-11-28T05:22:36.455Z,28.15
2022-11-28T05:25:03.088Z,27.67
2022-11-28T05:27:29.690Z,33.00
2022-11-28T05:30:00.899Z,31.95
2022-11-28T05:32:31.286Z,32.17
2022-11-28T05:34:58.240Z,34.95
2022-11-28T05:37:25.329Z,34.92
2022-11-28T05:39:52.177Z,28.80
2022-11-28T05:42:18.802Z,27.45
2022-11-28T05:44:45.483Z,36.10
2022-11-28T05:47:12.098Z,38.45
2022-11-28T05:49:39.014Z,35.70
2022-11-28T05:52:05.693Z,32.35
2022-11-28T05:54:32.468Z,44.55
2022-11-28T05:56:59.320Z,40.60
2022-11-28T05:59:26.395Z,40.53
2022-11-28T06:01:53.086Z,45.33
2022-11-28T06:04:19.877Z,44.30
2022-11-28T06:06:49.180Z,45.95
2022-11-28T06:09:16.095Z,36.33
2022-11-28T06:11:42.770Z,44.72
2022-11-28T06:14:10.595Z,44.42
2022-11-28T06:16:39.750Z,43.78
2022-11-28T06:19:06.539Z,47.08
2022-11-28T06:21:33.700Z,46.95
2022-11-28T06:24:00.671Z,51.90
2022-11-28T06:26:28.779Z,43.72
2022-11-28T06:28:55.873Z,48.72
2022-11-28T06:31:27.262Z,43.92
2022-11-28T06:33:54.182Z,41.58
2022-11-28T06:36:21.034Z,48.40
2022-11-28T06:38:48.134Z,47.85
2022-11-28T06:41:17.716Z,51.75
2022-11-28T06:43:44.337Z,53.72
2022-11-28T06:46:15.889Z,48.35
2022-11-28T06:48:43.159Z,63.30
2022-11-28T06:51:11.170Z,56.92
2022-11-28T06:53:37.970Z,58.22
2022-11-28T06:56:08.210Z,64.13
2022-11-28T06:58:35.145Z,54.95
2022-11-28T07:01:17.395Z,66.35
2022-11-28T07:03:44.657Z,53.28
2022-11-28T07:06:12.471Z,63.30
2022-11-28T07:08:39.733Z,57.80
2022-11-28T07:11:12.296Z,64.78
2022-11-28T07:13:40.115Z,68.53
2022-11-28T07:16:07.510Z,66.70
2022-11-28T07:18:34.731Z,56.92
2022-11-28T07:21:01.445Z,70.75
2022-11-28T07:23:28.299Z,61.08
2022-11-28T07:25:59.863Z,66.50
2022-11-28T07:28:28.044Z,62.67
2022-11-28T07:31:19.864Z,74.10
2022-11-28T07:33:48.715Z,69.43
2022-11-28T07:36:24.519Z,71.55
2022-11-28T07:38:55.760Z,66.22
2022-11-28T07:41:26.415Z,69.25
2022-11-28T07:43:56.470Z,71.20
2022-11-28T07:46:24.387Z,73.90
2022-11-28T07:48:51.054Z,69.43
2022-11-28T07:51:20.580Z,74.00
2022-11-28T07:53:47.602Z,75.80
2022-11-28T07:56:17.226Z,72.15
2022-11-28T07:58:45.443Z,79.72
2022-11-28T08:01:14.947Z,81.32
2022-11-28T08:03:42.136Z,76.90
2022-11-28T08:06:08.945Z,81.90
2022-11-28T08:08:35.947Z,83.70
2022-11-28T08:11:05.383Z,81.40
2022-11-28T08:13:32.526Z,97.47
2022-11-28T08:16:02.869Z,92.88
2022-11-28T08:18:29.483Z,80.00
2022-11-28T08:21:04.486Z,93.75
2022-11-28T08:23:32.459Z,85.85
2022-11-28T08:26:02.031Z,79.85
2022-11-28T08:28:29.140Z,85.57
2022-11-28T08:30:56.254Z,84.63
2022-11-28T08:33:24.616Z,72.40
2022-11-28T08:35:54.123Z,94.57
2022-11-28T08:38:21.449Z,75.25
2022-11-28T08:40:48.060Z,86.25
2022-11-28T08:43:14.931Z,73.07
2022-11-28T08:45:41.744Z,67.93
2022-11-28T08:48:08.399Z,63.30
2022-11-28T08:50:35.131Z,64.55
2022-11-28T08:53:07.521Z,74.57
2022-11-28T08:55:39.149Z,69.38
2022-11-28T08:58:07.482Z,70.93
2022-11-28T09:00:34.192Z,62.55
2022-11-28T09:03:00.959Z,57.88
2022-11-28T09:05:29.420Z,68.63
2022-11-28T09:07:56.794Z,46.28
2022-11-28T09:10:24.895Z,55.20
2022-11-28T09:12:52.331Z,57.92
2022-11-28T09:15:19.495Z,55.30
2022-11-28T09:17:46.863Z,65.72
2022-11-28T09:20:13.986Z,62.33
2022-11-28T09:22:42.555Z,67.18
2022-11-28T09:25:09.453Z,60.05
2022-11-28T09:27:36.122Z,52.80
2022-11-28T09:30:03.106Z,54.38
2022-11-28T09:32:29.893Z,53.75
2022-11-28T09:34:56.827Z,62.72
2022-11-28T09:37:23.635Z,41.72
2022-11-28T09:40:11.981Z,51.40
2022-11-28T09:42:44.981Z,42.78
2022-11-28T09:45:24.858Z,53.53
2022-11-28T09:47:57.716Z,59.97
2022-11-28T09:50:30.505Z,62.33
2022-11-28T09:53:22.067Z,66.05
2022-11-28T09:56:00.333Z,65.38
2022-11-28T09:58:30.639Z,73.32
2022-11-28T10:01:28.241Z,73.55
2022-11-28T10:04:16.321Z,71.30
2022-11-28T10:07:05.352Z,78.93
2022-11-28T10:09:58.998Z,85.15
2022-11-28T10:12:43.534Z,65.85
2022-11-28T10:15:26.745Z,51.63
2022-11-28T10:18:24.609Z,66.18
2022-11-28T10:20:56.906Z,65.82
2022-11-28T10:23:42.373Z,53.90
2022-11-28T10:26:39.038Z,43.50
2022-11-28T10:29:32.302Z,64.70
2022-11-28T10:32:02.146Z,69.78
2022-11-28T10:34:49.637Z,71.50
2022-11-28T10:37:23.842Z,59.75
2022-11-28T10:39:50.882Z,63.03
2022-11-28T10:42:42.711Z,34.20
2022-11-28T10:45:20.351Z,29.38
2022-11-28T10:48:39.739Z,79.80
2022-11-28T10:51:38.087Z,65.15
2022-11-28T10:54:16.915Z,78.22
2022-11-28T10:57:20.354Z,66.40
2022-11-28T11:00:05.879Z,69.22
2022-11-28T11:02:36.999Z,58.97
2022-11-28T11:05:06.855Z,63.85
2022-11-28T11:07:34.767Z,79.68
2022-11-28T11:10:26.866Z,47.58
2022-11-28T11:12:53.663Z,62.65
2022-11-28T11:15:24.863Z,64.00
2022-11-28T11:17:51.985Z,52.05
2022-11-28T11:20:28.088Z,68.65
2022-11-28T11:23:19.060Z,63.92
2022-11-28T11:25:50.109Z,44.28
2022-11-28T11:28:32.062Z,66.63
2022-11-28T11:31:01.311Z,65.15
2022-11-28T11:33:34.692Z,59.55
2022-11-28T11:36:04.873Z,61.80
2022-11-28T11:38:38.116Z,75.90
2022-11-28T11:41:31.267Z,73.28
2022-11-28T11:44:25.754Z,74.18
2022-11-28T11:47:03.967Z,72.28
2022-11-28T11:49:35.378Z,63.17
2022-11-28T11:52:14.587Z,68.28
2022-11-28T11:55:18.151Z,63.17
2022-11-28T11:57:50.308Z,73.03
2022-11-28T12:00:24.036Z,67.30
2022-11-28T12:02:57.870Z,61.78
2022-11-28T12:05:41.796Z,78.17
2022-11-28T12:08:35.514Z,77.75
2022-11-28T12:11:29.560Z,45.10
2022-11-28T12:14:04.443Z,54.00
2022-11-28T12:16:40.048Z,63.13
2022-11-28T12:19:37.411Z,59.08
2022-11-28T12:22:16.957Z,48.05
2022-11-28T12:25:13.998Z,61.22
2022-11-28T12:27:52.367Z,53.83
2022-11-28T12:30:43.413Z,72.75
2022-11-28T12:33:37.438Z,65.05
2022-11-28T12:36:32.071Z,71.32
2022-11-28T12:39:24.875Z,62.93
2022-11-28T12:42:15.407Z,54.15
2022-11-28T12:44:58.815Z,59.55
2022-11-28T12:47:34.354Z,60.92
2022-11-28T12:50:20.350Z,55.70
2022-11-28T12:53:00.507Z,55.20
2022-11-28T12:55:52.036Z,48.35
2022-11-28T12:58:30.004Z,52.70
2022-11-28T13:01:32.509Z,54.40
2022-11-28T13:04:44.513Z,59.95
2022-11-28T13:07:45.690Z,44.13
2022-11-28T13:10:37.304Z,50.22
2022-11-28T13:13:22.363Z,49.95
2022-11-28T13:16:08.069Z,48.15
2022-11-28T13:18:56.112Z,45.38
2022-11-28T13:21:34.959Z,51.22
2022-11-28T13:24:32.005Z,54.65
2022-11-28T13:27:33.194Z,45.03
2022-11-28T13:30:14.253Z,40.88
2022-11-28T13:33:11.763Z,47.55
2022-11-28T13:35:43.515Z,45.38
2022-11-28T13:38:36.988Z,48.17
2022-11-28T13:41:43.160Z,46.42
2022-11-28T13:44:29.371Z,51.28
2022-11-28T13:46:56.739Z,42.13
2022-11-28T13:49:25.781Z,44.30
2022-11-28T13:52:29.341Z,46.78
2022-11-28T13:54:55.952Z,51.05
2022-11-28T13:57:40.726Z,41.55
2022-11-28T14:00:22.735Z,44.05
2022-11-28T14:03:00.129Z,46.53
2022-11-28T14:05:41.473Z,48.75
2022-11-28T14:08:23.240Z,41.28
2022-11-28T14:11:06.243Z,53.83
2022-11-28T14:13:49.948Z,35.80
2022-11-28T14:16:17.881Z,43.67
2022-11-28T14:19:04.199Z,43.63
2022-11-28T14:21:44.589Z,39.47
2022-11-28T14:24:31.580Z,36.38
2022-11-28T14:27:02.401Z,30.92
2022-11-28T14:29:37.113Z,33.58
2022-11-28T14:34:50.997Z,35.80
2022-11-28T14:37:27.322Z,33.78
2022-11-28T14:39:56.063Z,39.75
2022-11-28T14:45:42.485Z,36.20
2022-11-28T14:48:24.503Z,32.92
2022-11-28T14:50:59.385Z,28.75
2022-11-28T14:53:34.429Z,34.40
2022-11-28T14:56:24.534Z,31.63
2022-11-28T14:58:55.485Z,33.45
2022-11-28T15:01:45.841Z,32.88
2022-11-28T15:04:30.334Z,28.80
2022-11-28T15:06:59.956Z,41.20
2022-11-28T15:09:49.244Z,26.65
2022-11-28T15:12:28.674Z,27.33
2022-11-28T15:14:58.166Z,24.08
2022-11-28T15:17:32.356Z,24.98
2022-11-28T15:20:08.980Z,23.30
2022-11-28T15:22:41.722Z,28.52
2022-11-28T15:25:39.824Z,22.35
2022-11-28T15:28:18.052Z,19.10
2022-11-28T15:30:52.594Z,18.45
2022-11-28T15:33:20.484Z,29.25
2022-11-28T15:36:10.844Z,20.13
2022-11-28T15:38:39.140Z,20.33
2022-11-28T15:41:06.037Z,25.77
2022-11-28T15:43:32.826Z,25.83
2022-11-28T15:46:01.768Z,29.35
2022-11-28T15:48:58.373Z,25.10
2022-11-28T15:51:32.597Z,29.50
2022-11-28T15:54:00.439Z,24.60
2022-11-28T15:56:27.042Z,32.28
2022-11-28T15:58:53.879Z,32.45
2022-11-28T16:01:22.445Z,39.42
2022-11-28T16:03:57.034Z,35.30
2022-11-28T16:06:28.616Z,27.33
2022-11-28T16:08:59.678Z,32.58
2022-11-28T16:11:30.538Z,28.77
2022-11-28T16:13:59.999Z,28.33
2022-11-28T16:16:30.618Z,23.98
2022-11-28T16:19:03.851Z,30.52
2022-11-28T16:21:35.015Z,22.73
2022-11-28T16:24:02.135Z,26.90
2022-11-28T16:26:34.623Z,32.60
2022-11-28T16:29:07.228Z,27.50
2022-11-28T16:31:34.719Z,29.00
2022-11-28T16:34:02.675Z,29.17
2022-11-28T16:36:37.635Z,27.58
2022-11-28T16:39:09.578Z,35.25
2022-11-28T16:41:37.378Z,43.47
2022-11-28T16:44:07.294Z,42.85
2022-11-28T16:46:40.708Z,36.63
2022-11-28T16:49:38.682Z,52.90
2022-11-28T16:52:25.785Z,52.80
2022-11-28T16:54:55.906Z,51.33
2022-11-28T16:57:24.154Z,47.00
2022-11-28T16:59:53.211Z,65.38
2022-11-28T17:02:25.233Z,61.47
2022-11-28T17:04:53.184Z,50.33
2022-11-28T17:07:24.594Z,64.10
2022-11-28T17:09:51.411Z,66.47
2022-11-28T17:12:28.295Z,60.75
2022-11-28T17:14:55.839Z,73.25
2022-11-28T17:17:23.775Z,66.30
2022-11-28T17:19:50.562Z,63.22
2022-11-28T17:22:25.106Z,50.97
2022-11-28T17:24:56.416Z,46.53
2022-11-28T17:27:22.995Z,61.47
2022-11-28T17:29:49.593Z,66.25
2022-11-28T17:32:16.478Z,53.17
2022-11-28T17:34:43.696Z,70.45
2022-11-28T17:37:10.657Z,70.60
2022-11-28T17:39:37.651Z,66.47
2022-11-28T17:42:04.975Z,52.67
2022-11-28T17:44:34.055Z,65.53
2022-11-28T17:47:01.819Z,68.65
2022-11-28T17:49:29.494Z,61.58
2022-11-28T17:51:56.734Z,52.00
2022-11-28T17:54:25.194Z,56.35
2022-11-28T17:56:53.028Z,54.47
2022-11-28T17:59:21.731Z,47.17
2022-11-28T18:01:48.656Z,59.13
2022-11-28T18:04:16.103Z,53.35
2022-11-28T18:06:47.062Z,65.55
2022-11-28T18:09:14.834Z,56.83
2022-11-28T18:11:42.794Z,58.95
2022-11-28T18:14:10.042Z,56.72
2022-11-28T18:16:36.875Z,50.75
2022-11-28T18:19:04.039Z,53.58
2022-11-28T18:21:31.375Z,50.88
2022-11-28T18:23:58.251Z,50.92
2022-11-28T18:26:26.134Z,47.55
2022-11-28T18:28:53.659Z,65.00
2022-11-28T18:31:28.490Z,67.05
2022-11-28T18:34:01.500Z,63.22
2022-11-28T18:36:31.207Z,61.15
2022-11-28T18:39:07.546Z,47.40
2022-11-28T18:41:34.496Z,56.13
2022-11-28T18:44:04.537Z,46.28
2022-11-28T18:46:33.135Z,50.38
2022-11-28T18:48:59.803Z,48.65
2022-11-28T18:51:32.505Z,41.22
2022-11-28T18:53:59.170Z,46.22
2022-11-28T18:56:26.506Z,55.67
2022-11-28T18:58:54.265Z,36.67
2022-11-28T19:01:25.277Z,37.33
2022-11-28T19:03:54.622Z,40.75
2022-11-28T19:06:22.133Z,42.00
2022-11-28T19:08:53.031Z,81.53
2022-11-28T19:11:20.031Z,123.13
2022-11-28T19:13:48.247Z,109.03
2022-11-28T19:16:17.645Z,135.35
2022-11-28T19:18:45.114Z,112.85
2022-11-28T19:21:17.679Z,127.05
2022-11-28T19:23:47.047Z,166.27
2022-11-28T19:26:15.879Z,157.02
2022-11-28T19:28:43.383Z,160.93
2022-11-28T19:31:23.999Z,156.95
2022-11-28T19:34:02.253Z,172.27
2022-11-28T19:36:31.090Z,133.88
2022-11-28T19:38:58.882Z,90.10
2022-11-28T19:41:25.917Z,122.95
2022-11-28T19:43:52.609Z,101.78
2022-11-28T19:46:19.805Z,80.50
2022-11-28T19:48:46.775Z,66.35
2022-11-28T19:51:14.240Z,49.70
2022-11-28T19:53:42.716Z,42.55
2022-11-28T19:56:20.586Z,43.00
2022-11-28T19:58:47.598Z,32.65
2022-11-28T20:01:17.265Z,34.83
2022-11-28T20:03:44.931Z,29.70
2022-11-28T20:06:13.560Z,23.65
2022-11-28T20:08:40.927Z,30.52
2022-11-28T20:11:15.849Z,33.47
2022-11-28T20:13:43.456Z,29.35
2022-11-28T20:16:12.004Z,27.90
2022-11-28T20:18:41.329Z,29.48
2022-11-28T20:21:13.987Z,36.28
2022-11-28T20:23:42.889Z,43.50
2022-11-28T20:26:10.268Z,39.60
2022-11-28T20:28:39.441Z,35.05
2022-11-28T20:31:16.186Z,40.88
2022-11-28T20:33:42.830Z,40.30
2022-11-28T20:36:11.919Z,38.45
2022-11-28T20:38:38.603Z,33.67
2022-11-28T20:41:08.204Z,32.55
2022-11-28T20:43:37.859Z,43.15
2022-11-28T20:46:06.791Z,35.92
2022-11-28T20:48:33.536Z,30.38
2022-11-28T20:51:00.166Z,36.13
2022-11-28T20:53:27.500Z,42.00
2022-11-28T20:56:04.688Z,38.78
2022-11-28T20:58:32.052Z,32.83
2022-11-28T21:01:01.372Z,28.80
2022-11-28T21:03:28.159Z,31.80
2022-11-28T21:05:59.522Z,34.75
2022-11-28T21:08:30.329Z,27.92
2022-11-28T21:10:57.048Z,26.15
2022-11-28T21:13:23.782Z,36.20
2022-11-28T21:15:53.359Z,38.60
2022-11-28T21:18:20.012Z,28.38
2022-11-28T21:20:47.518Z,37.35
2022-11-28T21:23:15.761Z,33.45
2022-11-28T21:25:44.089Z,31.48
2022-11-28T21:28:11.866Z,25.00
2022-11-28T21:30:44.954Z,37.35
2022-11-28T21:33:12.750Z,30.00
2022-11-28T21:35:39.832Z,24.85
2022-11-28T21:38:06.962Z,29.30
2022-11-28T21:40:33.986Z,21.17
2022-11-28T21:43:00.739Z,24.25
2022-11-28T21:45:27.527Z,33.38
2022-11-28T21:47:54.229Z,28.00
2022-11-28T21:50:20.879Z,24.92
2022-11-28T21:52:47.487Z,27.90
2022-11-28T21:55:14.229Z,24.25
2022-11-28T21:57:42.289Z,25.77
2022-11-28T22:00:20.791Z,23.35
2022-11-28T22:03:03.306Z,36.45
2022-11-28T22:05:32.885Z,35.72
2022-11-28T22:07:59.731Z,50.28
2022-11-28T22:10:26.738Z,32.72
2022-11-28T22:12:53.757Z,29.75
2022-11-28T22:15:20.870Z,28.45
2022-11-28T22:17:47.505Z,24.92
2022-11-28T22:20:14.293Z,28.58
2022-11-28T22:22:41.007Z,28.38
2022-11-28T22:25:08.014Z,40.13
2022-11-28T22:27:35.517Z,23.65
2022-11-28T22:30:02.386Z,32.47
2022-11-28T22:32:29.112Z,42.47
2022-11-28T22:34:55.868Z,39.75
2022-11-28T22:37:22.648Z,37.53
2022-11-28T22:39:49.267Z,24.45
2022-11-28T22:42:16.006Z,47.20
2022-11-28T22:44:42.963Z,30.13
2022-11-28T22:47:09.787Z,29.75
2022-11-28T22:49:36.436Z,20.35
2022-11-28T22:52:03.215Z,28.52
2022-11-28T22:54:29.859Z,35.13
2022-11-28T22:56:56.542Z,29.42
2022-11-28T22:59:23.195Z,19.42
2022-11-28T23:01:50.064Z,17.60
2022-11-28T23:04:16.775Z,17.90
2022-11-28T23:06:43.726Z,19.27
2022-11-28T23:09:13.041Z,22.70
2022-11-28T23:11:40.323Z,39.88
2022-11-28T23:14:07.358Z,11.90
2022-11-28T23:16:39.628Z,12.02
2022-11-28T23:19:11.113Z,55.10
2022-11-28T23:21:40.472Z,15.23
2022-11-28T23:24:07.853Z,18.73
2022-11-28T23:26:35.022Z,19.33
2022-11-28T23:29:03.292Z,11.35
2022-11-28T23:31:32.481Z,10.27
2022-11-28T23:34:00.769Z,14.27
2022-11-28T23:36:30.203Z,25.35
2022-11-28T23:38:59.485Z,15.65
2022-11-28T23:41:27.011Z,20.55
2022-11-28T23:43:53.794Z,16.65
2022-11-28T23:46:22.084Z,11.30
2022-11-28T23:48:49.439Z,13.98
2022-11-28T23:51:17.998Z,12.60
2022-11-28T23:53:45.306Z,15.38
2022-11-28T23:56:16.549Z,13.25
2022-11-28T23:58:43.706Z,14.00
